createdAt,value
2018-06-20T00:00:07.898Z,20.37
2018-06-20T00:02:36.480Z,21.50
2018-06-20T00:05:04.735Z,19.67
2018-06-20T00:07:32.939Z,21.80
2018-06-20T00:10:01.103Z,21.77
2018-06-20T00:12:29.283Z,20.70
2018-06-20T00:14:57.478Z,21.73
2018-06-20T00:17:25.638Z,22.07
2018-06-20T00:19:53.803Z,22.03
2018-06-20T00:22:21.992Z,21.33
2018-06-20T00:24:50.147Z,20.90
2018-06-20T00:27:18.367Z,22.40
2018-06-20T00:29:46.555Z,20.03
2018-06-20T00:32:14.767Z,21.77
2018-06-20T00:34:42.967Z,21.07
2018-06-20T00:37:11.141Z,21.37
2018-06-20T00:39:39.310Z,21.37
2018-06-20T00:42:07.556Z,20.60
2018-06-20T00:44:35.775Z,20.50
2018-06-20T00:47:03.954Z,20.60
2018-06-20T00:49:32.151Z,21.00
2018-06-20T00:52:00.360Z,20.80
2018-06-20T00:54:28.558Z,20.43
2018-06-20T00:56:56.775Z,20.40
2018-06-20T00:59:24.982Z,20.30
2018-06-20T01:01:53.154Z,19.70
2018-06-20T01:04:21.338Z,20.90
2018-06-20T01:06:49.514Z,20.33
2018-06-20T01:09:17.700Z,19.93
2018-06-20T01:11:45.911Z,21.13
2018-06-20T01:14:14.078Z,21.27
2018-06-20T01:16:42.263Z,20.97
2018-06-20T01:19:10.448Z,21.27
2018-06-20T01:21:38.630Z,20.77
2018-06-20T01:24:06.851Z,21.20
2018-06-20T01:26:35.011Z,20.57
2018-06-20T01:29:03.174Z,20.93
2018-06-20T01:31:31.374Z,20.63
2018-06-20T01:33:59.558Z,20.70
2018-06-20T01:36:27.735Z,20.03
2018-06-20T01:38:55.953Z,21.40
2018-06-20T01:41:24.131Z,20.67
2018-06-20T01:43:52.323Z,20.90
2018-06-20T01:46:20.494Z,20.77
2018-06-20T01:48:48.656Z,20.57
2018-06-20T01:51:16.840Z,21.70
2018-06-20T01:53:45.008Z,21.80
2018-06-20T01:56:13.195Z,20.60
2018-06-20T01:58:41.383Z,22.20
2018-06-20T02:01:09.557Z,21.67
2018-06-20T02:03:37.786Z,21.03
2018-06-20T02:06:05.951Z,21.53
2018-06-20T02:08:34.130Z,21.40
2018-06-20T02:11:02.320Z,20.90
2018-06-20T02:13:30.483Z,21.27
2018-06-20T02:15:58.659Z,21.50
2018-06-20T02:18:26.832Z,21.00
2018-06-20T02:20:55.017Z,20.60
2018-06-20T02:23:23.196Z,20.77
2018-06-20T02:25:51.358Z,22.20
2018-06-20T02:28:19.536Z,22.60
2018-06-20T02:30:47.723Z,21.20
2018-06-20T02:33:15.911Z,21.63
2018-06-20T02:35:44.087Z,20.40
2018-06-20T02:38:12.266Z,22.43
2018-06-20T02:40:40.423Z,21.23
2018-06-20T02:43:08.618Z,20.67
2018-06-20T02:45:36.843Z,21.23
2018-06-20T02:48:05.050Z,21.67
2018-06-20T02:50:33.219Z,20.97
2018-06-20T02:53:01.416Z,20.90
2018-06-20T02:55:29.587Z,22.17
2018-06-20T02:57:57.766Z,20.60
2018-06-20T03:00:25.947Z,20.90
2018-06-20T03:02:54.115Z,21.00
2018-06-20T03:05:22.295Z,19.67
2018-06-20T03:07:50.508Z,19.63
2018-06-20T03:10:18.718Z,19.80
2018-06-20T03:12:46.910Z,20.50
2018-06-20T03:15:15.088Z,20.87
2018-06-20T03:17:43.264Z,22.97
2018-06-20T03:20:11.427Z,23.07
2018-06-20T03:22:39.659Z,21.63
2018-06-20T03:25:07.822Z,21.00
2018-06-20T03:27:36.048Z,20.40
2018-06-20T03:30:04.609Z,21.97
2018-06-20T03:32:32.809Z,20.83
2018-06-20T03:35:00.997Z,20.40
2018-06-20T03:37:29.180Z,21.20
2018-06-20T03:39:57.358Z,22.10
2018-06-20T03:42:25.533Z,21.23
2018-06-20T03:44:53.732Z,20.53
2018-06-20T03:47:21.935Z,20.40
2018-06-20T03:49:50.103Z,21.10
2018-06-20T03:52:18.271Z,19.97
2018-06-20T03:54:46.450Z,18.83
2018-06-20T03:57:14.604Z,20.70
2018-06-20T03:59:42.787Z,19.47
2018-06-20T04:02:10.998Z,18.63
2018-06-20T04:04:39.138Z,18.27
2018-06-20T04:07:07.348Z,19.60
2018-06-20T04:09:35.514Z,17.83
2018-06-20T04:12:03.682Z,19.20
2018-06-20T04:14:31.851Z,18.50
2018-06-20T04:17:00.059Z,18.50
2018-06-20T04:19:28.223Z,17.97
2018-06-20T04:21:56.414Z,19.43
2018-06-20T04:24:24.607Z,21.47
2018-06-20T04:26:52.778Z,19.00
2018-06-20T04:29:20.959Z,18.20
2018-06-20T04:31:49.126Z,18.50
2018-06-20T04:34:17.306Z,19.30
2018-06-20T04:36:45.471Z,17.23
2018-06-20T04:39:13.654Z,20.90
2018-06-20T04:41:41.825Z,18.93
2018-06-20T04:44:09.986Z,18.77
2018-06-20T04:46:38.146Z,18.13
2018-06-20T04:49:06.440Z,18.30
2018-06-20T04:51:34.617Z,18.20
2018-06-20T04:54:02.826Z,19.20
2018-06-20T04:56:31.143Z,20.10
2018-06-20T04:58:59.331Z,19.90
2018-06-20T05:01:27.522Z,18.57
2018-06-20T05:03:55.702Z,19.87
2018-06-20T05:06:23.871Z,18.40
2018-06-20T05:08:52.041Z,20.07
2018-06-20T05:11:20.222Z,18.70
2018-06-20T05:13:48.423Z,19.50
2018-06-20T05:16:16.596Z,18.63
2018-06-20T05:18:44.782Z,17.67
2018-06-20T05:21:12.956Z,17.20
2018-06-20T05:23:41.135Z,18.27
2018-06-20T05:26:09.295Z,18.00
2018-06-20T05:28:37.500Z,17.70
2018-06-20T05:31:05.662Z,19.77
2018-06-20T05:33:33.846Z,17.50
2018-06-20T05:36:02.023Z,18.70
2018-06-20T05:38:30.208Z,17.20
2018-06-20T05:40:58.379Z,18.63
2018-06-20T05:43:26.546Z,18.97
2018-06-20T05:45:54.768Z,18.43
2018-06-20T05:48:22.951Z,17.63
2018-06-20T05:50:51.119Z,18.00
2018-06-20T05:53:19.274Z,17.20
2018-06-20T05:55:47.443Z,17.33
2018-06-20T05:58:15.662Z,19.10
2018-06-20T06:00:43.835Z,19.07
2018-06-20T06:03:12.011Z,17.03
2018-06-20T06:05:40.231Z,18.63
2018-06-20T06:08:11.053Z,17.40
2018-06-20T06:10:39.250Z,17.90
2018-06-20T06:13:07.448Z,18.13
2018-06-20T06:15:35.622Z,16.87
2018-06-20T06:18:03.795Z,16.20
2018-06-20T06:20:32.006Z,17.67
2018-06-20T06:23:00.210Z,17.53
2018-06-20T06:25:32.369Z,16.70
2018-06-20T06:28:00.534Z,15.50
2018-06-20T06:30:28.766Z,15.43
2018-06-20T06:32:56.882Z,17.40
2018-06-20T06:35:25.063Z,17.10
2018-06-20T06:37:53.232Z,16.07
2018-06-20T06:40:21.415Z,15.63
2018-06-20T06:42:49.587Z,16.40
2018-06-20T06:45:17.866Z,19.40
2018-06-20T06:47:46.047Z,16.57
2018-06-20T06:50:14.224Z,19.27
2018-06-20T06:52:42.401Z,17.00
2018-06-20T06:55:10.579Z,16.87
2018-06-20T06:57:38.749Z,19.90
2018-06-20T07:00:06.979Z,18.37
2018-06-20T07:02:35.170Z,17.20
2018-06-20T07:05:03.359Z,19.37
2018-06-20T07:07:31.546Z,17.47
2018-06-20T07:09:59.719Z,18.43
2018-06-20T07:12:27.902Z,17.50
2018-06-20T07:14:56.083Z,20.23
2018-06-20T07:17:24.271Z,18.87
2018-06-20T07:19:52.444Z,19.40
2018-06-20T07:22:20.636Z,18.20
2018-06-20T07:24:48.795Z,17.80
2018-06-20T07:27:16.983Z,17.23
2018-06-20T07:29:45.190Z,18.80
2018-06-20T07:32:13.378Z,17.60
2018-06-20T07:34:41.548Z,17.43
2018-06-20T07:37:09.721Z,16.93
2018-06-20T07:39:37.882Z,18.60
2018-06-20T07:42:06.067Z,18.43
2018-06-20T07:44:34.239Z,19.23
2018-06-20T07:47:02.626Z,16.97
2018-06-20T07:49:30.898Z,16.60
2018-06-20T07:51:59.072Z,15.90
2018-06-20T07:54:27.265Z,16.57
2018-06-20T07:56:55.518Z,17.20
2018-06-20T07:59:23.700Z,16.70
2018-06-20T08:02:08.522Z,15.80
2018-06-20T08:04:42.008Z,14.93
2018-06-20T08:07:15.513Z,13.80
2018-06-20T08:09:49.026Z,15.97
2018-06-20T08:12:22.538Z,16.07
2018-06-20T08:14:55.903Z,15.73
2018-06-20T08:17:29.360Z,15.67
2018-06-20T08:19:59.591Z,16.57
2018-06-20T08:22:28.095Z,16.67
2018-06-20T08:25:04.494Z,15.97
2018-06-20T08:27:33.558Z,14.20
2018-06-20T08:30:02.931Z,13.50
2018-06-20T08:32:31.684Z,13.77
2018-06-20T08:35:00.003Z,12.97
2018-06-20T08:37:28.216Z,13.03
2018-06-20T08:39:56.398Z,11.93
2018-06-20T08:42:25.065Z,12.23
2018-06-20T08:44:53.419Z,12.30
2018-06-20T08:47:21.784Z,12.53
2018-06-20T08:49:49.966Z,13.37
2018-06-20T08:52:18.146Z,12.90
2018-06-20T08:54:46.323Z,14.07
2018-06-20T08:57:14.493Z,13.77
2018-06-20T08:59:42.712Z,13.87
2018-06-20T09:02:10.924Z,13.90
2018-06-20T09:04:44.422Z,13.10
2018-06-20T09:07:17.982Z,14.20
2018-06-20T09:09:51.407Z,14.83
2018-06-20T09:12:24.794Z,14.57
2018-06-20T09:14:58.327Z,13.93
2018-06-20T09:17:31.786Z,12.97
2018-06-20T09:20:00.842Z,13.37
2018-06-20T09:22:29.006Z,13.17
2018-06-20T09:24:57.178Z,13.80
2018-06-20T09:27:25.358Z,14.77
2018-06-20T09:29:53.555Z,14.70
2018-06-20T09:32:21.707Z,14.10
2018-06-20T09:34:49.895Z,14.10
2018-06-20T09:37:18.070Z,13.33
2018-06-20T09:39:46.341Z,13.70
2018-06-20T09:42:14.433Z,13.03
2018-06-20T09:44:42.592Z,14.00
2018-06-20T09:47:10.755Z,13.67
2018-06-20T09:49:38.974Z,13.00
2018-06-20T09:52:07.154Z,12.17
2018-06-20T09:54:35.335Z,12.03
2018-06-20T09:57:03.533Z,12.93
2018-06-20T09:59:37.111Z,14.70
2018-06-20T10:02:10.891Z,13.97
2018-06-20T10:04:44.326Z,13.30
2018-06-20T10:07:19.551Z,13.37
2018-06-20T10:09:51.747Z,13.33
2018-06-20T10:12:25.318Z,13.33
2018-06-20T10:14:53.483Z,13.70
2018-06-20T10:17:21.643Z,13.57
2018-06-20T10:19:49.799Z,13.37
2018-06-20T10:22:17.962Z,13.30
2018-06-20T10:24:46.178Z,13.70
2018-06-20T10:27:14.338Z,14.30
2018-06-20T10:29:42.506Z,14.90
2018-06-20T10:32:10.671Z,13.63
2018-06-20T10:34:38.855Z,13.47
2018-06-20T10:37:07.022Z,13.67
2018-06-20T10:39:35.208Z,12.47
2018-06-20T10:42:03.423Z,13.43
2018-06-20T10:44:31.595Z,13.20
2018-06-20T10:47:05.182Z,13.73
2018-06-20T10:49:33.363Z,13.30
2018-06-20T10:52:01.528Z,13.73
2018-06-20T10:54:29.715Z,14.40
2018-06-20T10:57:03.239Z,15.33
2018-06-20T10:59:36.714Z,13.90
2018-06-20T11:02:10.292Z,13.80
2018-06-20T11:04:43.818Z,13.40
2018-06-20T11:07:17.236Z,14.17
2018-06-20T11:09:50.646Z,13.17
2018-06-20T11:12:24.225Z,13.70
2018-06-20T11:14:52.444Z,13.03
2018-06-20T11:17:20.656Z,12.17
2018-06-20T11:19:48.875Z,11.53
2018-06-20T11:22:17.052Z,11.03
2018-06-20T11:24:45.234Z,11.47
2018-06-20T11:27:13.402Z,11.23
2018-06-20T11:29:41.598Z,11.80
2018-06-20T11:32:09.819Z,11.50
2018-06-20T11:34:38.047Z,11.07
2018-06-20T11:37:06.285Z,11.67
2018-06-20T11:39:34.510Z,11.70
2018-06-20T11:42:02.706Z,12.00
2018-06-20T11:44:30.959Z,11.50
2018-06-20T11:47:04.450Z,12.13
2018-06-20T11:49:32.634Z,12.83
2018-06-20T11:52:00.823Z,11.90
2018-06-20T11:54:29.007Z,12.80
2018-06-20T11:56:57.203Z,12.47
2018-06-20T11:59:31.783Z,12.73
2018-06-20T12:02:05.235Z,12.83
2018-06-20T12:04:38.718Z,12.00
2018-06-20T12:09:16.847Z,12.10
2018-06-20T12:11:50.370Z,11.60
2018-06-20T12:14:23.759Z,11.87
2018-06-20T12:16:51.090Z,11.60
2018-06-20T12:19:24.414Z,11.37
2018-06-20T12:21:57.854Z,11.80
2018-06-20T12:24:31.307Z,12.30
2018-06-20T12:27:04.732Z,12.20
2018-06-20T12:29:38.215Z,12.30
2018-06-20T12:32:11.664Z,11.10
2018-06-20T12:34:45.126Z,11.43
2018-06-20T12:37:18.640Z,11.73
2018-06-20T12:39:51.051Z,11.30
2018-06-20T12:42:24.635Z,11.97
2018-06-20T12:44:58.176Z,11.80
2018-06-20T12:47:32.795Z,11.70
2018-06-20T12:50:03.303Z,11.40
2018-06-20T12:52:31.448Z,11.10
2018-06-20T12:54:59.612Z,12.00
2018-06-20T12:57:27.846Z,11.23
2018-06-20T12:59:56.024Z,11.30
2018-06-20T13:02:24.209Z,12.70
2018-06-20T13:04:52.388Z,11.03
2018-06-20T13:07:20.566Z,10.90
2018-06-20T13:09:48.727Z,11.73
2018-06-20T13:12:16.921Z,11.10
2018-06-20T13:14:45.122Z,12.33
2018-06-20T13:17:13.302Z,11.30
2018-06-20T13:19:41.468Z,10.93
2018-06-20T13:22:09.643Z,12.03
2018-06-20T13:24:37.797Z,11.50
2018-06-20T13:27:05.987Z,10.63
2018-06-20T13:29:34.162Z,10.70
2018-06-20T13:33:04.881Z,11.73
2018-06-20T13:35:38.490Z,12.30
2018-06-20T13:38:12.091Z,11.17
2018-06-20T13:40:45.546Z,11.17
2018-06-20T13:43:18.920Z,11.30
2018-06-20T13:45:52.335Z,11.40
2018-06-20T13:48:28.307Z,10.80
2018-06-20T13:50:56.488Z,11.30
2018-06-20T13:53:24.650Z,12.70
2018-06-20T13:55:52.814Z,11.10
2018-06-20T13:58:20.987Z,10.70
2018-06-20T14:00:49.152Z,11.67
2018-06-20T14:03:17.326Z,11.10
2018-06-20T14:05:45.496Z,11.73
2018-06-20T14:08:13.679Z,10.90
2018-06-20T14:10:41.843Z,12.20
2018-06-20T14:13:10.034Z,11.67
2018-06-20T14:15:38.298Z,11.43
2018-06-20T14:18:06.466Z,11.07
2018-06-20T14:20:39.841Z,11.27
2018-06-20T14:23:08.051Z,10.33
2018-06-20T14:25:36.239Z,11.10
2018-06-20T14:28:04.411Z,11.17
2018-06-20T14:30:38.052Z,11.63
2018-06-20T14:33:11.486Z,11.47
2018-06-20T14:35:44.981Z,10.30
2018-06-20T14:38:18.476Z,11.07
2018-06-20T14:42:54.619Z,10.80
2018-06-20T14:45:27.951Z,11.97
2018-06-20T14:47:56.115Z,11.20
2018-06-20T14:50:24.290Z,10.80
2018-06-20T14:52:52.487Z,11.23
2018-06-20T14:55:21.039Z,11.10
2018-06-20T14:57:49.207Z,11.83
2018-06-20T15:00:19.080Z,11.57
2018-06-20T15:02:47.335Z,11.87
2018-06-20T15:05:17.090Z,11.27
2018-06-20T15:07:45.354Z,12.13
2018-06-20T15:10:13.582Z,10.00
2018-06-20T15:12:41.772Z,10.10
2018-06-20T15:15:09.953Z,10.63
2018-06-20T15:17:38.125Z,10.43
2018-06-20T15:20:06.370Z,10.30
2018-06-20T15:22:39.831Z,10.70
2018-06-20T15:25:08.035Z,10.73
2018-06-20T15:27:41.594Z,11.60
2018-06-20T15:30:15.079Z,11.10
2018-06-20T15:32:48.545Z,11.40
2018-06-20T15:35:22.062Z,11.83
2018-06-20T15:37:55.510Z,11.27
2018-06-20T15:40:23.839Z,11.30
2018-06-20T15:42:52.017Z,11.27
2018-06-20T15:45:20.227Z,11.27
2018-06-20T15:47:48.391Z,11.33
2018-06-20T15:50:16.555Z,11.03
2018-06-20T15:52:44.718Z,11.10
2018-06-20T15:55:12.882Z,10.37
2018-06-20T15:57:41.151Z,9.87
2018-06-20T16:00:09.438Z,11.20
2018-06-20T16:02:37.811Z,10.27
2018-06-20T16:05:06.010Z,10.60
2018-06-20T16:07:34.182Z,10.20
2018-06-20T16:10:02.403Z,10.30
2018-06-20T16:12:30.566Z,10.30
2018-06-20T16:14:58.734Z,10.60
2018-06-20T16:17:27.095Z,10.60
2018-06-20T16:20:00.526Z,10.13
2018-06-20T16:22:34.107Z,10.60
2018-06-20T16:25:07.383Z,11.20
2018-06-20T16:27:40.905Z,10.50
2018-06-20T16:30:14.447Z,10.47
2018-06-20T16:32:42.602Z,10.60
2018-06-20T16:35:10.801Z,10.30
2018-06-20T16:37:38.989Z,10.43
2018-06-20T16:40:07.174Z,10.10
2018-06-20T16:42:35.339Z,9.23
2018-06-20T16:45:03.523Z,8.37
2018-06-20T16:47:31.695Z,9.70
2018-06-20T16:49:59.855Z,9.37
2018-06-20T16:52:28.038Z,8.97
2018-06-20T16:54:56.191Z,9.83
2018-06-20T16:57:24.520Z,10.33
2018-06-20T16:59:52.698Z,13.90
2018-06-20T17:02:26.014Z,13.87
2018-06-20T17:04:54.259Z,11.00
2018-06-20T17:07:22.443Z,19.23
2018-06-20T17:09:50.599Z,11.13
2018-06-20T17:12:24.087Z,9.53
2018-06-20T17:14:57.568Z,9.97
2018-06-20T17:17:31.043Z,9.00
2018-06-20T17:20:04.458Z,10.70
2018-06-20T17:22:37.834Z,10.57
2018-06-20T17:25:11.290Z,9.30
2018-06-20T17:27:39.458Z,9.90
2018-06-20T17:30:07.655Z,10.93
2018-06-20T17:32:35.814Z,10.00
2018-06-20T17:35:04.175Z,10.83
2018-06-20T17:37:32.844Z,10.53
2018-06-20T17:40:01.031Z,11.80
2018-06-20T17:42:29.226Z,11.33
2018-06-20T17:44:57.399Z,10.07
2018-06-20T17:47:25.568Z,12.80
2018-06-20T17:49:53.762Z,10.40
2018-06-20T17:52:21.972Z,13.23
2018-06-20T17:54:50.146Z,10.13
2018-06-20T17:57:18.298Z,15.83
2018-06-20T17:59:46.475Z,12.50
2018-06-20T18:02:14.651Z,11.93
2018-06-20T18:04:48.151Z,11.60
2018-06-20T18:07:21.676Z,26.87
2018-06-20T18:09:55.083Z,18.57
2018-06-20T18:12:28.685Z,20.20
2018-06-20T18:15:02.119Z,16.50
2018-06-20T18:17:30.277Z,17.83
2018-06-20T18:19:58.445Z,20.27
2018-06-20T18:22:26.622Z,13.60
2018-06-20T18:24:54.778Z,11.80
2018-06-20T18:27:22.947Z,11.60
2018-06-20T18:29:51.116Z,11.17
2018-06-20T18:32:19.287Z,11.00
2018-06-20T18:34:47.527Z,10.73
2018-06-20T18:37:15.649Z,11.53
2018-06-20T18:39:49.052Z,11.17
2018-06-20T18:42:17.222Z,11.10
2018-06-20T18:44:45.397Z,11.57
2018-06-20T18:47:17.728Z,10.70
2018-06-20T18:49:45.894Z,11.93
2018-06-20T18:52:14.282Z,10.50
2018-06-20T18:54:42.582Z,10.80
2018-06-20T18:57:16.114Z,11.53
2018-06-20T18:59:49.722Z,11.63
2018-06-20T19:02:23.202Z,11.17
2018-06-20T19:04:56.719Z,11.70
2018-06-20T19:07:30.168Z,11.33
2018-06-20T19:09:58.412Z,11.47
2018-06-20T19:12:26.678Z,11.73
2018-06-20T19:14:54.907Z,11.80
2018-06-20T19:17:23.167Z,11.03
2018-06-20T19:19:51.354Z,11.97
2018-06-20T19:22:19.542Z,12.00
2018-06-20T19:24:47.694Z,11.00
2018-06-20T19:27:15.903Z,10.90
2018-06-20T19:29:44.090Z,11.67
2018-06-20T19:32:12.278Z,12.87
2018-06-20T19:34:40.519Z,11.60
2018-06-20T19:37:08.709Z,12.43
2018-06-20T19:39:42.351Z,11.70
2018-06-20T19:42:10.548Z,13.60
2018-06-20T19:44:38.886Z,12.20
2018-06-20T19:47:07.234Z,12.00
2018-06-20T19:49:35.407Z,13.10
2018-06-20T19:52:03.793Z,13.27
2018-06-20T19:54:32.790Z,12.50
2018-06-20T19:57:00.967Z,13.53
2018-06-20T19:59:29.131Z,14.27
2018-06-20T20:01:57.327Z,13.83
2018-06-20T20:04:25.493Z,14.27
2018-06-20T20:06:54.167Z,15.47
2018-06-20T20:09:22.370Z,14.67
2018-06-20T20:11:50.578Z,15.07
2018-06-20T20:14:18.755Z,18.60
2018-06-20T20:16:46.944Z,15.50
2018-06-20T20:19:15.123Z,14.10
2018-06-20T20:21:43.314Z,14.00
2018-06-20T20:24:11.478Z,14.13
2018-06-20T20:26:39.668Z,13.90
2018-06-20T20:29:07.867Z,12.57
2018-06-20T20:31:36.066Z,12.40
2018-06-20T20:34:04.411Z,13.73
2018-06-20T20:36:32.451Z,15.43
2018-06-20T20:39:00.631Z,14.00
2018-06-20T20:41:28.847Z,14.37
2018-06-20T20:43:56.995Z,12.33
2018-06-20T20:46:25.183Z,13.63
2018-06-20T20:48:53.355Z,13.30
2018-06-20T20:51:21.539Z,13.27
2018-06-20T20:53:49.727Z,13.50
2018-06-20T20:56:17.904Z,13.00
2018-06-20T20:58:46.071Z,14.43
2018-06-20T21:01:14.262Z,13.90
2018-06-20T21:03:42.695Z,14.50
2018-06-20T21:06:10.920Z,14.77
2018-06-20T21:08:39.035Z,14.30
2018-06-20T21:11:07.219Z,15.33
2018-06-20T21:13:35.400Z,14.00
2018-06-20T21:16:03.579Z,14.97
2018-06-20T21:18:31.758Z,15.07
2018-06-20T21:20:59.923Z,16.07
2018-06-20T21:23:28.089Z,15.17
2018-06-20T21:25:56.259Z,16.20
2018-06-20T21:28:24.422Z,16.77
2018-06-20T21:30:52.607Z,16.17
2018-06-20T21:33:20.767Z,16.93
2018-06-20T21:35:48.942Z,15.93
2018-06-20T21:38:17.107Z,16.70
2018-06-20T21:40:45.277Z,16.23
2018-06-20T21:43:13.435Z,16.40
2018-06-20T21:45:41.615Z,15.97
2018-06-20T21:48:09.779Z,15.03
2018-06-20T21:50:37.983Z,15.40
2018-06-20T21:53:06.190Z,15.60
2018-06-20T21:55:34.359Z,15.77
2018-06-20T21:58:02.532Z,15.97
2018-06-20T22:00:31.202Z,15.27
2018-06-20T22:02:59.387Z,16.43
2018-06-20T22:05:27.572Z,17.10
2018-06-20T22:07:55.743Z,16.10
2018-06-20T22:10:23.922Z,16.93
2018-06-20T22:12:52.096Z,16.23
2018-06-20T22:15:20.267Z,17.20
2018-06-20T22:17:48.432Z,17.07
2018-06-20T22:20:16.608Z,18.27
2018-06-20T22:22:44.769Z,16.77
2018-06-20T22:25:13.098Z,17.40
2018-06-20T22:27:41.242Z,15.47
2018-06-20T22:30:09.920Z,16.77
2018-06-20T22:32:38.082Z,17.43
2018-06-20T22:35:06.298Z,16.47
2018-06-20T22:37:34.497Z,17.57
2018-06-20T22:40:02.691Z,17.00
2018-06-20T22:42:30.928Z,18.40
2018-06-20T22:44:59.268Z,18.77
2018-06-20T22:47:27.739Z,18.20
2018-06-20T22:49:55.906Z,18.07
2018-06-20T22:52:24.089Z,17.33
2018-06-20T22:54:52.285Z,18.50
2018-06-20T22:57:20.451Z,18.53
2018-06-20T22:59:48.642Z,18.73
2018-06-20T23:02:16.819Z,18.30
2018-06-20T23:04:44.983Z,18.57
2018-06-20T23:07:13.348Z,17.07
2018-06-20T23:09:41.546Z,17.37
2018-06-20T23:12:09.704Z,17.60
2018-06-20T23:14:37.867Z,17.33
2018-06-20T23:17:06.035Z,17.63
2018-06-20T23:19:34.187Z,16.93
2018-06-20T23:22:02.376Z,17.90
2018-06-20T23:24:30.534Z,16.97
2018-06-20T23:26:58.702Z,16.80
2018-06-20T23:29:26.875Z,17.57
2018-06-20T23:31:55.043Z,17.57
2018-06-20T23:34:23.194Z,18.73
2018-06-20T23:36:51.375Z,16.60
2018-06-20T23:39:19.531Z,16.43
2018-06-20T23:41:47.703Z,18.40
2018-06-20T23:44:15.859Z,17.90
2018-06-20T23:46:44.018Z,17.30
2018-06-20T23:49:12.189Z,17.60
2018-06-20T23:51:40.346Z,16.97
2018-06-20T23:54:08.508Z,17.10
2018-06-20T23:56:36.706Z,17.17
2018-06-20T23:59:04.894Z,16.80
